UAE17K OMDB-LCLK
Flight info
| Callsign | UAE17K |
|---|---|
| Flight time | 4h 52m |
| Altitude | 37000 |
| Route | ANVIX L223 TARDI N629 BOTAM Y855 LAKLU Q204 NALKI G652 TOKRA DCT ALROK DCT BOSOB DCT ITRUX Y511 PMA Z712 WEJ L677 GESON Q777 RASDA M28 BETID |
| Aircraft | B77W/H-SDE1E2E3FGHIJ2J3J4J5M1RWXY/LB1D1 |
Departure
| Time | 2026-04-25 10:38 |
|---|---|
| Airport | Dubai International Airport (OMDB) |
Arrival
| Time | 2026-04-25 15:31 |
|---|---|
| Airport | Larnaca International Airport (LCLK) |
| Time | Latitude | Longitude | Altitude | Speed | Heading |
|---|---|---|---|---|---|
| 2026-04-25 10:15 | 25.24471 | 55.37141 | 26 ft | 0 kts | 211° |
| 2026-04-25 10:28 | 25.24486 | 55.37152 | 31 ft | 4 kts | 211° |
| 2026-04-25 10:29 | 25.24509 | 55.37167 | 31 ft | 4 kts | 211° |
| 2026-04-25 10:29 | 25.24528 | 55.37180 | 31 ft | 4 kts | 204° |
| 2026-04-25 10:29 | 25.24552 | 55.37185 | 31 ft | 4 kts | 160° |
| 2026-04-25 10:29 | 25.24572 | 55.37169 | 32 ft | 4 kts | 123° |
| 2026-04-25 10:30 | 25.24586 | 55.37145 | 32 ft | 4 kts | 122° |
| 2026-04-25 10:30 | 25.24593 | 55.37132 | 32 ft | 0 kts | 122° |
| 2026-04-25 10:33 | 25.24583 | 55.37150 | 32 ft | 7 kts | 122° |
| 2026-04-25 10:33 | 25.24542 | 55.37222 | 41 ft | 13 kts | 122° |
| 2026-04-25 10:33 | 25.24494 | 55.37309 | 31 ft | 13 kts | 122° |
| 2026-04-25 10:34 | 25.24447 | 55.37391 | 30 ft | 12 kts | 122° |
| 2026-04-25 10:34 | 25.24390 | 55.37493 | 31 ft | 18 kts | 122° |
| 2026-04-25 10:34 | 25.24324 | 55.37610 | 30 ft | 18 kts | 122° |
| 2026-04-25 10:34 | 25.24268 | 55.37710 | 29 ft | 14 kts | 118° |
| 2026-04-25 10:35 | 25.24299 | 55.37799 | 29 ft | 13 kts | 34° |
| 2026-04-25 10:35 | 25.24323 | 55.37816 | 26 ft | 1 kts | 33° |
| 2026-04-25 10:35 | 25.24357 | 55.37842 | 27 ft | 11 kts | 34° |
| 2026-04-25 10:35 | 25.24423 | 55.37891 | 29 ft | 12 kts | 34° |
| 2026-04-25 10:36 | 25.24490 | 55.37942 | 30 ft | 12 kts | 34° |
| 2026-04-25 10:36 | 25.24562 | 55.37997 | 28 ft | 14 kts | 34° |
| 2026-04-25 10:36 | 25.24642 | 55.38054 | 28 ft | 14 kts | 31° |
| 2026-04-25 10:36 | 25.24719 | 55.38106 | 30 ft | 10 kts | 31° |
| 2026-04-25 10:37 | 25.24775 | 55.38083 | 31 ft | 10 kts | 302° |
| 2026-04-25 10:37 | 25.24866 | 55.37918 | 30 ft | 54 kts | 301° |
| 2026-04-25 10:37 | 25.25182 | 55.37350 | 32 ft | 117 kts | 301° |
| 2026-04-25 10:37 | 25.25703 | 55.36411 | 30 ft | 167 kts | 302° |
| 2026-04-25 10:38 | 25.26352 | 55.35245 | 343 ft | 179 kts | 302° |
| 2026-04-25 10:38 | 25.27004 | 55.34058 | 797 ft | 184 kts | 302° |
| 2026-04-25 10:38 | 25.27666 | 55.32861 | 1479 ft | 179 kts | 302° |
| 2026-04-25 10:38 | 25.28325 | 55.31667 | 2009 ft | 186 kts | 302° |
| 2026-04-25 10:39 | 25.29023 | 55.30409 | 2361 ft | 202 kts | 298° |
| 2026-04-25 10:39 | 25.29299 | 55.28848 | 2612 ft | 222 kts | 261° |
| 2026-04-25 10:39 | 25.28690 | 55.27247 | 3047 ft | 230 kts | 244° |
| 2026-04-25 10:39 | 25.27960 | 55.25637 | 3575 ft | 236 kts | 246° |
| 2026-04-25 10:40 | 25.27250 | 55.24004 | 4226 ft | 237 kts | 246° |
| 2026-04-25 10:40 | 25.26538 | 55.22343 | 4820 ft | 240 kts | 246° |
| 2026-04-25 10:40 | 25.25823 | 55.20673 | 5455 ft | 240 kts | 246° |
| 2026-04-25 10:40 | 25.25341 | 55.19543 | 5898 ft | 241 kts | 246° |
| 2026-04-25 10:41 | 25.24174 | 55.17482 | 6607 ft | 245 kts | 219° |
| 2026-04-25 10:41 | 25.22614 | 55.16741 | 7110 ft | 253 kts | 186° |
| 2026-04-25 10:41 | 25.20831 | 55.16751 | 7609 ft | 259 kts | 179° |
| 2026-04-25 10:41 | 25.19057 | 55.17164 | 8057 ft | 268 kts | 150° |
| 2026-04-25 10:42 | 25.17717 | 55.18603 | 8563 ft | 278 kts | 123° |
| 2026-04-25 10:42 | 25.16788 | 55.20540 | 8858 ft | 292 kts | 118° |
| 2026-04-25 10:42 | 25.15851 | 55.22556 | 9004 ft | 300 kts | 120° |
| 2026-04-25 10:42 | 25.14881 | 55.24604 | 9399 ft | 301 kts | 120° |
| 2026-04-25 10:43 | 25.13904 | 55.26648 | 10125 ft | 301 kts | 120° |
| 2026-04-25 10:43 | 25.12926 | 55.28697 | 10806 ft | 303 kts | 120° |
| 2026-04-25 10:43 | 25.11928 | 55.30777 | 11348 ft | 315 kts | 120° |
| 2026-04-25 10:43 | 25.10861 | 55.32991 | 11509 ft | 339 kts | 119° |
| 2026-04-25 10:44 | 25.09788 | 55.35420 | 11681 ft | 364 kts | 116° |
| 2026-04-25 10:44 | 25.08727 | 55.38048 | 11958 ft | 384 kts | 116° |
| 2026-04-25 10:44 | 25.07627 | 55.40773 | 12614 ft | 392 kts | 115° |
| 2026-04-25 10:44 | 25.06523 | 55.43547 | 13375 ft | 397 kts | 114° |
| 2026-04-25 10:45 | 25.05446 | 55.46368 | 14121 ft | 401 kts | 115° |
| 2026-04-25 10:45 | 25.04362 | 55.49220 | 14812 ft | 405 kts | 115° |
| 2026-04-25 10:45 | 25.03260 | 55.52094 | 15515 ft | 409 kts | 115° |
| 2026-04-25 10:45 | 25.02145 | 55.54986 | 16272 ft | 411 kts | 115° |
| 2026-04-25 10:46 | 25.00875 | 55.57816 | 16932 ft | 414 kts | 121° |
| 2026-04-25 10:46 | 24.99368 | 55.60537 | 17574 ft | 419 kts | 124° |
| 2026-04-25 10:46 | 24.97788 | 55.63264 | 18230 ft | 423 kts | 124° |
| 2026-04-25 10:46 | 24.96232 | 55.66039 | 18781 ft | 429 kts | 123° |
| 2026-04-25 10:47 | 24.94686 | 55.68877 | 19284 ft | 435 kts | 122° |
| 2026-04-25 10:47 | 24.93073 | 55.71714 | 19781 ft | 440 kts | 126° |
| 2026-04-25 10:47 | 24.91270 | 55.74463 | 20289 ft | 445 kts | 129° |
| 2026-04-25 10:47 | 24.89386 | 55.77190 | 20802 ft | 450 kts | 129° |
| 2026-04-25 10:48 | 24.87489 | 55.79957 | 21321 ft | 455 kts | 128° |
| 2026-04-25 10:48 | 24.85598 | 55.82777 | 21839 ft | 461 kts | 128° |
| 2026-04-25 10:48 | 24.83699 | 55.85642 | 22338 ft | 466 kts | 128° |
| 2026-04-25 10:48 | 24.81764 | 55.88529 | 22829 ft | 471 kts | 128° |
| 2026-04-25 10:49 | 24.79799 | 55.91436 | 23307 ft | 476 kts | 128° |
| 2026-04-25 10:49 | 24.78488 | 55.93369 | 23613 ft | 479 kts | 129° |
| 2026-04-25 10:49 | 24.75463 | 55.96989 | 24143 ft | 481 kts | 140° |
| 2026-04-25 10:49 | 24.72939 | 55.99405 | 24612 ft | 483 kts | 141° |
| 2026-04-25 10:50 | 24.70407 | 56.01850 | 25086 ft | 485 kts | 140° |
| 2026-04-25 10:50 | 24.67944 | 56.04336 | 25525 ft | 489 kts | 139° |
| 2026-04-25 10:50 | 24.65457 | 56.06899 | 25965 ft | 492 kts | 139° |
| 2026-04-25 10:50 | 24.62955 | 56.09479 | 26416 ft | 494 kts | 139° |
| 2026-04-25 10:51 | 24.60402 | 56.12097 | 26848 ft | 497 kts | 139° |
| 2026-04-25 10:51 | 24.57868 | 56.14705 | 27291 ft | 500 kts | 138° |
| 2026-04-25 10:51 | 24.55454 | 56.17475 | 27715 ft | 505 kts | 133° |
| 2026-04-25 10:51 | 24.53165 | 56.20408 | 28150 ft | 507 kts | 132° |
| 2026-04-25 10:52 | 24.50880 | 56.23369 | 28506 ft | 510 kts | 132° |
| 2026-04-25 10:52 | 24.48573 | 56.26352 | 28857 ft | 513 kts | 133° |
| 2026-04-25 10:52 | 24.46249 | 56.29337 | 29178 ft | 516 kts | 133° |
| 2026-04-25 10:52 | 24.43902 | 56.32335 | 29504 ft | 518 kts | 133° |
| 2026-04-25 10:53 | 24.41548 | 56.35327 | 29958 ft | 518 kts | 133° |
| 2026-04-25 10:53 | 24.39199 | 56.38307 | 30402 ft | 515 kts | 133° |
| 2026-04-25 10:53 | 24.36855 | 56.41280 | 30857 ft | 514 kts | 133° |
| 2026-04-25 10:53 | 24.34553 | 56.44200 | 31263 ft | 513 kts | 133° |
| 2026-04-25 10:54 | 24.32221 | 56.47157 | 31651 ft | 512 kts | 133° |
| 2026-04-25 10:54 | 24.30648 | 56.49152 | 31923 ft | 512 kts | 133° |
| 2026-04-25 10:54 | 24.27740 | 56.53226 | 32403 ft | 512 kts | 128° |
| 2026-04-25 10:54 | 24.25654 | 56.56389 | 32786 ft | 512 kts | 128° |
| 2026-04-25 10:55 | 24.23585 | 56.59554 | 33219 ft | 510 kts | 128° |
| 2026-04-25 10:55 | 24.21523 | 56.62701 | 33699 ft | 507 kts | 128° |
| 2026-04-25 10:55 | 24.19462 | 56.65827 | 34040 ft | 507 kts | 128° |
| 2026-04-25 10:55 | 24.17389 | 56.68955 | 34248 ft | 509 kts | 128° |
| 2026-04-25 10:56 | 24.15300 | 56.72093 | 34450 ft | 511 kts | 128° |
| 2026-04-25 10:56 | 24.13203 | 56.75241 | 34660 ft | 512 kts | 128° |
| 2026-04-25 10:56 | 24.11100 | 56.78399 | 34806 ft | 515 kts | 128° |
| 2026-04-25 10:57 | 24.06822 | 56.84707 | 34892 ft | 513 kts | 134° |
| 2026-04-25 10:57 | 24.02262 | 56.88756 | 34900 ft | 500 kts | 154° |
| 2026-04-25 10:58 | 23.95871 | 56.91287 | 34906 ft | 488 kts | 171° |
| 2026-04-25 10:58 | 23.89231 | 56.92941 | 34908 ft | 490 kts | 170° |
| 2026-04-25 10:59 | 23.82576 | 56.94670 | 34925 ft | 493 kts | 169° |
| 2026-04-25 10:59 | 23.75898 | 56.96456 | 34921 ft | 495 kts | 169° |
| 2026-04-25 11:00 | 23.69195 | 56.98258 | 34925 ft | 497 kts | 169° |
| 2026-04-25 11:00 | 23.62473 | 57.00060 | 34942 ft | 497 kts | 169° |
| 2026-04-25 11:01 | 23.55748 | 57.01857 | 34950 ft | 497 kts | 169° |
| 2026-04-25 11:01 | 23.49033 | 57.03651 | 34959 ft | 497 kts | 169° |
| 2026-04-25 11:02 | 23.42312 | 57.05424 | 34976 ft | 496 kts | 172° |
| 2026-04-25 11:02 | 23.35492 | 57.05931 | 34985 ft | 489 kts | 187° |
| 2026-04-25 11:03 | 23.28833 | 57.04766 | 34975 ft | 484 kts | 196° |
| 2026-04-25 11:03 | 23.22263 | 57.03132 | 34980 ft | 485 kts | 196° |
| 2026-04-25 11:04 | 23.15672 | 57.01551 | 34981 ft | 486 kts | 195° |
| 2026-04-25 11:04 | 23.09065 | 57.00007 | 35004 ft | 486 kts | 195° |
| 2026-04-25 11:05 | 23.02452 | 56.98463 | 34988 ft | 486 kts | 195° |
| 2026-04-25 11:05 | 22.95883 | 56.96912 | 34989 ft | 487 kts | 195° |
| 2026-04-25 11:06 | 22.89265 | 56.95331 | 34981 ft | 487 kts | 195° |
| 2026-04-25 11:06 | 22.83107 | 56.92688 | 34983 ft | 473 kts | 221° |
| 2026-04-25 11:06 | 22.80778 | 56.90204 | 34954 ft | 469 kts | 235° |
| 2026-04-25 11:07 | 22.79090 | 56.87214 | 34975 ft | 464 kts | 245° |
| 2026-04-25 11:07 | 22.76188 | 56.80895 | 34969 ft | 467 kts | 245° |
| 2026-04-25 11:08 | 22.73268 | 56.74649 | 34943 ft | 468 kts | 245° |
| 2026-04-25 11:08 | 22.70276 | 56.68384 | 34931 ft | 468 kts | 245° |
| 2026-04-25 11:09 | 22.67273 | 56.62141 | 34916 ft | 467 kts | 245° |
| 2026-04-25 11:09 | 22.64273 | 56.55912 | 34907 ft | 466 kts | 245° |
| 2026-04-25 11:10 | 22.61281 | 56.49700 | 34902 ft | 465 kts | 245° |
| 2026-04-25 11:10 | 22.58288 | 56.43492 | 34915 ft | 465 kts | 245° |
| 2026-04-25 11:11 | 22.55297 | 56.37297 | 34896 ft | 465 kts | 245° |
| 2026-04-25 11:11 | 22.52296 | 56.31104 | 34899 ft | 465 kts | 245° |
| 2026-04-25 11:12 | 22.49292 | 56.24919 | 34882 ft | 464 kts | 245° |
| 2026-04-25 11:12 | 22.46290 | 56.18739 | 34891 ft | 464 kts | 245° |
| 2026-04-25 11:13 | 22.43291 | 56.12571 | 34884 ft | 463 kts | 245° |
| 2026-04-25 11:13 | 22.40293 | 56.06411 | 34872 ft | 463 kts | 245° |
| 2026-04-25 11:14 | 22.37291 | 56.00256 | 34872 ft | 463 kts | 245° |
| 2026-04-25 11:14 | 22.34274 | 55.94112 | 34881 ft | 463 kts | 245° |
| 2026-04-25 11:15 | 22.31251 | 55.87970 | 34872 ft | 463 kts | 245° |
| 2026-04-25 11:15 | 22.28229 | 55.81831 | 34859 ft | 463 kts | 245° |
| 2026-04-25 11:16 | 22.23697 | 55.72629 | 34855 ft | 463 kts | 245° |
| 2026-04-25 11:16 | 22.20681 | 55.66501 | 34859 ft | 462 kts | 245° |
| 2026-04-25 11:17 | 22.17712 | 55.60387 | 34853 ft | 460 kts | 249° |
| 2026-04-25 11:17 | 22.15729 | 55.53885 | 34861 ft | 455 kts | 259° |
| 2026-04-25 11:18 | 22.14857 | 55.47174 | 34861 ft | 451 kts | 267° |
| 2026-04-25 11:18 | 22.14345 | 55.40427 | 34839 ft | 451 kts | 267° |
| 2026-04-25 11:19 | 22.13825 | 55.33681 | 34841 ft | 451 kts | 267° |
| 2026-04-25 11:19 | 22.13281 | 55.26931 | 34843 ft | 452 kts | 267° |
| 2026-04-25 11:20 | 22.12722 | 55.20177 | 34841 ft | 452 kts | 267° |
| 2026-04-25 11:20 | 22.12156 | 55.13417 | 34830 ft | 453 kts | 267° |
| 2026-04-25 11:21 | 22.11586 | 55.06642 | 34830 ft | 454 kts | 267° |
| 2026-04-25 11:21 | 22.11014 | 54.99869 | 34831 ft | 454 kts | 266° |
| 2026-04-25 11:22 | 22.10540 | 54.94240 | 34844 ft | 453 kts | 266° |
| 2026-04-25 11:22 | 22.09864 | 54.86320 | 34825 ft | 454 kts | 266° |
| 2026-04-25 11:23 | 22.09283 | 54.79536 | 34834 ft | 454 kts | 266° |
| 2026-04-25 11:23 | 22.08704 | 54.72802 | 34840 ft | 454 kts | 266° |
| 2026-04-25 11:24 | 22.08118 | 54.66022 | 34844 ft | 454 kts | 266° |
| 2026-04-25 11:24 | 22.07526 | 54.59202 | 34831 ft | 454 kts | 266° |
| 2026-04-25 11:25 | 22.06939 | 54.52473 | 34845 ft | 454 kts | 266° |
| 2026-04-25 11:25 | 22.06345 | 54.45696 | 34824 ft | 454 kts | 266° |
| 2026-04-25 11:26 | 22.05747 | 54.38923 | 34841 ft | 454 kts | 266° |
| 2026-04-25 11:26 | 22.05147 | 54.32145 | 34821 ft | 454 kts | 266° |
| 2026-04-25 11:27 | 22.04544 | 54.25365 | 34827 ft | 454 kts | 266° |
| 2026-04-25 11:27 | 22.04037 | 54.19683 | 34828 ft | 455 kts | 266° |
| 2026-04-25 11:28 | 22.03330 | 54.11794 | 34838 ft | 455 kts | 266° |
| 2026-04-25 11:28 | 22.02718 | 54.05005 | 34843 ft | 455 kts | 266° |
| 2026-04-25 11:29 | 22.02102 | 53.98207 | 34833 ft | 456 kts | 266° |
| 2026-04-25 11:29 | 22.01484 | 53.91415 | 34838 ft | 455 kts | 266° |
| 2026-04-25 11:30 | 22.00862 | 53.84627 | 34845 ft | 455 kts | 266° |
| 2026-04-25 11:30 | 22.00238 | 53.77835 | 34839 ft | 455 kts | 266° |
| 2026-04-25 11:31 | 21.99612 | 53.71043 | 34840 ft | 456 kts | 265° |
| 2026-04-25 11:31 | 21.98982 | 53.64249 | 34845 ft | 456 kts | 265° |
| 2026-04-25 11:32 | 21.98349 | 53.57455 | 34835 ft | 456 kts | 265° |
| 2026-04-25 11:32 | 21.97713 | 53.50654 | 34837 ft | 456 kts | 265° |
| 2026-04-25 11:33 | 21.97074 | 53.43851 | 34856 ft | 456 kts | 265° |
| 2026-04-25 11:33 | 21.96432 | 53.37050 | 34853 ft | 456 kts | 265° |
| 2026-04-25 11:34 | 21.95787 | 53.30251 | 34836 ft | 456 kts | 265° |
| 2026-04-25 11:34 | 21.95139 | 53.23449 | 34848 ft | 456 kts | 265° |
| 2026-04-25 11:35 | 21.94489 | 53.16646 | 34851 ft | 456 kts | 265° |
| 2026-04-25 11:35 | 21.93835 | 53.09849 | 34854 ft | 456 kts | 265° |
| 2026-04-25 11:36 | 21.93180 | 53.03050 | 34842 ft | 456 kts | 265° |
| 2026-04-25 11:36 | 21.92526 | 52.96297 | 34849 ft | 457 kts | 265° |
| 2026-04-25 11:37 | 21.91864 | 52.89496 | 34850 ft | 457 kts | 265° |
| 2026-04-25 11:37 | 21.91199 | 52.82692 | 34853 ft | 457 kts | 265° |
| 2026-04-25 11:38 | 21.90527 | 52.75845 | 34861 ft | 457 kts | 265° |
| 2026-04-25 11:38 | 21.90488 | 52.69031 | 34854 ft | 454 kts | 275° |
| 2026-04-25 11:39 | 21.91436 | 52.62321 | 34856 ft | 453 kts | 281° |
| 2026-04-25 11:39 | 21.92693 | 52.55677 | 34862 ft | 452 kts | 282° |
| 2026-04-25 11:40 | 21.93933 | 52.49088 | 34847 ft | 451 kts | 282° |
| 2026-04-25 11:40 | 21.95158 | 52.42466 | 34845 ft | 450 kts | 281° |
| 2026-04-25 11:41 | 21.96368 | 52.35859 | 34847 ft | 449 kts | 281° |
| 2026-04-25 11:41 | 21.97572 | 52.29258 | 34860 ft | 449 kts | 281° |
| 2026-04-25 11:42 | 21.98771 | 52.22665 | 34848 ft | 448 kts | 282° |
| 2026-04-25 11:42 | 21.99968 | 52.16079 | 34861 ft | 448 kts | 281° |
| 2026-04-25 11:43 | 22.01160 | 52.09499 | 34853 ft | 447 kts | 281° |
| 2026-04-25 11:43 | 22.02349 | 52.02921 | 34871 ft | 447 kts | 281° |
| 2026-04-25 11:44 | 22.03535 | 51.96344 | 34854 ft | 447 kts | 281° |
| 2026-04-25 11:44 | 22.04517 | 51.90887 | 34868 ft | 446 kts | 281° |
| 2026-04-25 11:45 | 22.05695 | 51.84329 | 34859 ft | 445 kts | 281° |
| 2026-04-25 11:45 | 22.06868 | 51.77779 | 34876 ft | 445 kts | 281° |
| 2026-04-25 11:46 | 22.08037 | 51.71239 | 34861 ft | 444 kts | 281° |
| 2026-04-25 11:46 | 22.09202 | 51.64703 | 34860 ft | 444 kts | 281° |
| 2026-04-25 11:47 | 22.10364 | 51.58169 | 34859 ft | 444 kts | 281° |
| 2026-04-25 11:47 | 22.11522 | 51.51643 | 34870 ft | 443 kts | 280° |
| 2026-04-25 11:48 | 22.12675 | 51.45125 | 34857 ft | 442 kts | 280° |
| 2026-04-25 11:48 | 22.13825 | 51.38615 | 34867 ft | 442 kts | 280° |
| 2026-04-25 11:49 | 22.14972 | 51.32104 | 34871 ft | 442 kts | 280° |
| 2026-04-25 11:49 | 22.16115 | 51.25595 | 34868 ft | 442 kts | 280° |
| 2026-04-25 11:50 | 22.17257 | 51.19079 | 34870 ft | 442 kts | 280° |
| 2026-04-25 11:50 | 22.18396 | 51.12567 | 34868 ft | 442 kts | 280° |
| 2026-04-25 11:51 | 22.19533 | 51.06052 | 34871 ft | 442 kts | 280° |
| 2026-04-25 11:51 | 22.20667 | 50.99533 | 34870 ft | 442 kts | 280° |
| 2026-04-25 11:52 | 22.21798 | 50.93014 | 34871 ft | 442 kts | 280° |
| 2026-04-25 11:52 | 22.22928 | 50.86492 | 34878 ft | 442 kts | 280° |
| 2026-04-25 11:53 | 22.24054 | 50.79973 | 34870 ft | 442 kts | 280° |
| 2026-04-25 11:53 | 22.25177 | 50.73453 | 34872 ft | 442 kts | 280° |
| 2026-04-25 11:54 | 22.26297 | 50.66935 | 34871 ft | 442 kts | 280° |
| 2026-04-25 11:55 | 22.27972 | 50.57163 | 34874 ft | 441 kts | 280° |
| 2026-04-25 11:55 | 22.29085 | 50.50648 | 34871 ft | 441 kts | 280° |
| 2026-04-25 11:56 | 22.30190 | 50.44161 | 34870 ft | 441 kts | 280° |
| 2026-04-25 11:56 | 22.31297 | 50.37646 | 34871 ft | 441 kts | 280° |
| 2026-04-25 11:57 | 22.32403 | 50.31127 | 34883 ft | 441 kts | 280° |
| 2026-04-25 11:57 | 22.33504 | 50.24609 | 34871 ft | 441 kts | 280° |
| 2026-04-25 11:58 | 22.34603 | 50.18097 | 34873 ft | 441 kts | 280° |
| 2026-04-25 11:58 | 22.35698 | 50.11587 | 34869 ft | 440 kts | 280° |
| 2026-04-25 11:59 | 22.36788 | 50.05092 | 34872 ft | 439 kts | 280° |
| 2026-04-25 11:59 | 22.37875 | 49.98601 | 34870 ft | 439 kts | 280° |
| 2026-04-25 12:00 | 22.39497 | 49.88875 | 34873 ft | 438 kts | 280° |
| 2026-04-25 12:01 | 22.41111 | 49.79169 | 34871 ft | 437 kts | 280° |
| 2026-04-25 12:01 | 22.42183 | 49.72702 | 34871 ft | 437 kts | 281° |
| 2026-04-25 12:02 | 22.43785 | 49.63006 | 34872 ft | 437 kts | 280° |
| 2026-04-25 12:02 | 22.44841 | 49.56588 | 34871 ft | 437 kts | 280° |
| 2026-04-25 12:03 | 22.45904 | 49.50121 | 34875 ft | 437 kts | 280° |
| 2026-04-25 12:03 | 22.46962 | 49.43661 | 34872 ft | 437 kts | 280° |
| 2026-04-25 12:04 | 22.48019 | 49.37191 | 34874 ft | 437 kts | 280° |
| 2026-04-25 12:04 | 22.49072 | 49.30727 | 34872 ft | 436 kts | 280° |
| 2026-04-25 12:05 | 22.50122 | 49.24265 | 34892 ft | 436 kts | 280° |
| 2026-04-25 12:05 | 22.51168 | 49.17813 | 34877 ft | 435 kts | 280° |
| 2026-04-25 12:06 | 22.52210 | 49.11370 | 34876 ft | 434 kts | 280° |
| 2026-04-25 12:06 | 22.53247 | 49.04937 | 34875 ft | 434 kts | 280° |
| 2026-04-25 12:07 | 22.54279 | 48.98522 | 34880 ft | 433 kts | 280° |
| 2026-04-25 12:07 | 22.55300 | 48.92156 | 34880 ft | 432 kts | 280° |
| 2026-04-25 12:08 | 22.56325 | 48.85755 | 34878 ft | 432 kts | 280° |
| 2026-04-25 12:08 | 22.57346 | 48.79353 | 34886 ft | 432 kts | 280° |
| 2026-04-25 12:09 | 22.58366 | 48.72948 | 34897 ft | 432 kts | 280° |
| 2026-04-25 12:09 | 22.59383 | 48.66541 | 34886 ft | 432 kts | 280° |
| 2026-04-25 12:10 | 22.60396 | 48.60141 | 34887 ft | 431 kts | 280° |
| 2026-04-25 12:10 | 22.61405 | 48.53750 | 34890 ft | 431 kts | 280° |
| 2026-04-25 12:11 | 22.62411 | 48.47362 | 34886 ft | 430 kts | 280° |
| 2026-04-25 12:11 | 22.63413 | 48.40982 | 34886 ft | 430 kts | 280° |
| 2026-04-25 12:12 | 22.64244 | 48.35683 | 34891 ft | 429 kts | 280° |
| 2026-04-25 12:12 | 22.65408 | 48.28234 | 34889 ft | 429 kts | 280° |
| 2026-04-25 12:13 | 22.66401 | 48.21861 | 34887 ft | 429 kts | 280° |
| 2026-04-25 12:13 | 22.67392 | 48.15486 | 34891 ft | 429 kts | 280° |
| 2026-04-25 12:14 | 22.68379 | 48.09117 | 34887 ft | 429 kts | 280° |
| 2026-04-25 12:14 | 22.69306 | 48.02786 | 34890 ft | 428 kts | 277° |
| 2026-04-25 12:15 | 22.69850 | 47.96365 | 34896 ft | 428 kts | 276° |
| 2026-04-25 12:15 | 22.70367 | 47.89949 | 34895 ft | 428 kts | 276° |
| 2026-04-25 12:16 | 22.70891 | 47.83533 | 34895 ft | 428 kts | 276° |
| 2026-04-25 12:16 | 22.71419 | 47.77118 | 34896 ft | 427 kts | 276° |
| 2026-04-25 12:17 | 22.71946 | 47.70705 | 34901 ft | 427 kts | 276° |
| 2026-04-25 12:17 | 22.72470 | 47.64293 | 34911 ft | 427 kts | 276° |
| 2026-04-25 12:18 | 22.72991 | 47.57884 | 34908 ft | 427 kts | 276° |
| 2026-04-25 12:18 | 22.73509 | 47.51481 | 34910 ft | 427 kts | 276° |
| 2026-04-25 12:19 | 22.74281 | 47.41888 | 34915 ft | 426 kts | 276° |
| 2026-04-25 12:20 | 22.74705 | 47.36581 | 34914 ft | 425 kts | 276° |
| 2026-04-25 12:20 | 22.75298 | 47.29124 | 34926 ft | 425 kts | 276° |
| 2026-04-25 12:21 | 22.75803 | 47.22746 | 34926 ft | 425 kts | 276° |
| 2026-04-25 12:21 | 22.76306 | 47.16367 | 34931 ft | 425 kts | 276° |
| 2026-04-25 12:22 | 22.76816 | 47.09990 | 34929 ft | 425 kts | 276° |
| 2026-04-25 12:22 | 22.77327 | 47.03611 | 34945 ft | 425 kts | 276° |
| 2026-04-25 12:23 | 22.77830 | 46.97281 | 34941 ft | 424 kts | 276° |
| 2026-04-25 12:23 | 22.78333 | 46.90913 | 34939 ft | 424 kts | 276° |
| 2026-04-25 12:24 | 22.78832 | 46.84559 | 34937 ft | 423 kts | 276° |
| 2026-04-25 12:24 | 22.79329 | 46.78214 | 34945 ft | 422 kts | 276° |
| 2026-04-25 12:25 | 22.79822 | 46.71872 | 34948 ft | 422 kts | 276° |
| 2026-04-25 12:25 | 22.80312 | 46.65533 | 34950 ft | 422 kts | 276° |
| 2026-04-25 12:26 | 22.80800 | 46.59197 | 34956 ft | 422 kts | 276° |
| 2026-04-25 12:26 | 22.81285 | 46.52861 | 34960 ft | 422 kts | 276° |
| 2026-04-25 12:27 | 22.81769 | 46.46518 | 34965 ft | 422 kts | 276° |
| 2026-04-25 12:27 | 22.82250 | 46.40172 | 34954 ft | 422 kts | 275° |
| 2026-04-25 12:28 | 22.82724 | 46.33830 | 34959 ft | 422 kts | 275° |
| 2026-04-25 12:28 | 22.83189 | 46.27505 | 34960 ft | 421 kts | 275° |
| 2026-04-25 12:29 | 22.83653 | 46.21184 | 34943 ft | 421 kts | 275° |
| 2026-04-25 12:29 | 22.84114 | 46.14864 | 34945 ft | 420 kts | 275° |
| 2026-04-25 12:30 | 22.84572 | 46.08550 | 34935 ft | 420 kts | 275° |
| 2026-04-25 12:30 | 22.85027 | 46.02273 | 34935 ft | 420 kts | 275° |
| 2026-04-25 12:31 | 22.85481 | 45.95958 | 34935 ft | 420 kts | 275° |
| 2026-04-25 12:31 | 22.85932 | 45.89639 | 34942 ft | 420 kts | 275° |
| 2026-04-25 12:32 | 22.86381 | 45.83321 | 34930 ft | 420 kts | 275° |
| 2026-04-25 12:32 | 22.86827 | 45.77005 | 34924 ft | 420 kts | 275° |
| 2026-04-25 12:33 | 22.87271 | 45.70695 | 34929 ft | 420 kts | 275° |
| 2026-04-25 12:33 | 22.87711 | 45.64389 | 34929 ft | 420 kts | 275° |
| 2026-04-25 12:34 | 22.88150 | 45.58076 | 34925 ft | 420 kts | 275° |
| 2026-04-25 12:34 | 22.88585 | 45.51771 | 34920 ft | 419 kts | 275° |
| 2026-04-25 12:35 | 22.89018 | 45.45466 | 34929 ft | 419 kts | 275° |
| 2026-04-25 12:35 | 22.89449 | 45.39160 | 34932 ft | 420 kts | 275° |
| 2026-04-25 12:36 | 22.89806 | 45.33905 | 34933 ft | 420 kts | 275° |
| 2026-04-25 12:36 | 22.90233 | 45.27583 | 34923 ft | 420 kts | 275° |
| 2026-04-25 12:37 | 22.90657 | 45.21266 | 34925 ft | 420 kts | 275° |
| 2026-04-25 12:37 | 22.91078 | 45.14962 | 34922 ft | 419 kts | 275° |
| 2026-04-25 12:38 | 22.91496 | 45.08667 | 34921 ft | 418 kts | 275° |
| 2026-04-25 12:38 | 22.91912 | 45.02370 | 34923 ft | 418 kts | 275° |
| 2026-04-25 12:39 | 22.92326 | 44.96081 | 34922 ft | 418 kts | 275° |
| 2026-04-25 12:39 | 22.92738 | 44.89784 | 34919 ft | 419 kts | 275° |
| 2026-04-25 12:40 | 22.93147 | 44.83481 | 34929 ft | 419 kts | 275° |
| 2026-04-25 12:40 | 22.93555 | 44.77173 | 34925 ft | 420 kts | 275° |
| 2026-04-25 12:41 | 22.93975 | 44.70860 | 34917 ft | 419 kts | 277° |
| 2026-04-25 12:41 | 22.95025 | 44.64643 | 34927 ft | 419 kts | 283° |
| 2026-04-25 12:42 | 22.96788 | 44.58604 | 34928 ft | 420 kts | 287° |
| 2026-04-25 12:42 | 22.98669 | 44.52597 | 34922 ft | 420 kts | 287° |
| 2026-04-25 12:43 | 23.00538 | 44.46586 | 34919 ft | 420 kts | 287° |
| 2026-04-25 12:43 | 23.03321 | 44.37568 | 34921 ft | 420 kts | 287° |
| 2026-04-25 12:44 | 23.05169 | 44.31557 | 34920 ft | 419 kts | 287° |
| 2026-04-25 12:45 | 23.07934 | 44.22546 | 34918 ft | 419 kts | 287° |
| 2026-04-25 12:45 | 23.10680 | 44.13580 | 34913 ft | 419 kts | 287° |
| 2026-04-25 12:46 | 23.12514 | 44.07576 | 34912 ft | 419 kts | 287° |
| 2026-04-25 12:46 | 23.14346 | 44.01574 | 34926 ft | 418 kts | 287° |
| 2026-04-25 12:47 | 23.16177 | 43.95568 | 34920 ft | 419 kts | 287° |
| 2026-04-25 12:47 | 23.18003 | 43.89564 | 34921 ft | 419 kts | 287° |
| 2026-04-25 12:48 | 23.19828 | 43.83556 | 34925 ft | 418 kts | 287° |
| 2026-04-25 12:48 | 23.21651 | 43.77544 | 34931 ft | 419 kts | 286° |
| 2026-04-25 12:49 | 23.23472 | 43.71531 | 34936 ft | 419 kts | 286° |
| 2026-04-25 12:49 | 23.25291 | 43.65517 | 34943 ft | 419 kts | 286° |
| 2026-04-25 12:50 | 23.27108 | 43.59499 | 34945 ft | 419 kts | 286° |
| 2026-04-25 12:50 | 23.28921 | 43.53481 | 34944 ft | 418 kts | 286° |
| 2026-04-25 12:51 | 23.30727 | 43.47470 | 34952 ft | 418 kts | 286° |
| 2026-04-25 12:51 | 23.32529 | 43.41461 | 34958 ft | 418 kts | 286° |
| 2026-04-25 12:52 | 23.34326 | 43.35460 | 34959 ft | 417 kts | 286° |
| 2026-04-25 12:52 | 23.36121 | 43.29459 | 34973 ft | 417 kts | 286° |
| 2026-04-25 12:53 | 23.37914 | 43.23452 | 34967 ft | 417 kts | 286° |
| 2026-04-25 12:53 | 23.39706 | 43.17442 | 34982 ft | 418 kts | 286° |
| 2026-04-25 12:54 | 23.41501 | 43.11407 | 34984 ft | 419 kts | 286° |
| 2026-04-25 12:54 | 23.43288 | 43.05360 | 34987 ft | 420 kts | 285° |
| 2026-04-25 12:55 | 23.44773 | 43.00326 | 34979 ft | 421 kts | 285° |
| 2026-04-25 12:55 | 23.46868 | 42.93214 | 34993 ft | 423 kts | 285° |
| 2026-04-25 12:56 | 23.48665 | 42.87106 | 34990 ft | 424 kts | 285° |
| 2026-04-25 12:56 | 23.50464 | 42.80980 | 34987 ft | 425 kts | 285° |
| 2026-04-25 12:57 | 23.52264 | 42.74848 | 34985 ft | 425 kts | 285° |
| 2026-04-25 12:57 | 23.54062 | 42.68754 | 34975 ft | 425 kts | 285° |
| 2026-04-25 12:58 | 23.55872 | 42.62628 | 34974 ft | 425 kts | 285° |
| 2026-04-25 12:58 | 23.57679 | 42.56498 | 34974 ft | 425 kts | 285° |
| 2026-04-25 12:59 | 23.59483 | 42.50364 | 34971 ft | 425 kts | 285° |
| 2026-04-25 12:59 | 23.61284 | 42.44230 | 34971 ft | 425 kts | 285° |
| 2026-04-25 13:00 | 23.62487 | 42.40125 | 34988 ft | 425 kts | 285° |
| 2026-04-25 13:00 | 23.64881 | 42.31949 | 34974 ft | 425 kts | 285° |
| 2026-04-25 13:01 | 23.66673 | 42.25797 | 34978 ft | 426 kts | 285° |
| 2026-04-25 13:01 | 23.68449 | 42.19631 | 34993 ft | 426 kts | 285° |
| 2026-04-25 13:02 | 23.70226 | 42.13450 | 34988 ft | 427 kts | 285° |
| 2026-04-25 13:02 | 23.72003 | 42.07261 | 34987 ft | 427 kts | 285° |
| 2026-04-25 13:03 | 23.73779 | 42.01070 | 34995 ft | 427 kts | 285° |
| 2026-04-25 13:03 | 23.75564 | 41.94880 | 34996 ft | 428 kts | 285° |
| 2026-04-25 13:04 | 23.77367 | 41.88694 | 35012 ft | 428 kts | 285° |
| 2026-04-25 13:04 | 23.79165 | 41.82503 | 35020 ft | 428 kts | 285° |
| 2026-04-25 13:05 | 23.80958 | 41.76314 | 35023 ft | 427 kts | 285° |
| 2026-04-25 13:05 | 23.82736 | 41.70130 | 35031 ft | 427 kts | 285° |
| 2026-04-25 13:06 | 23.84499 | 41.63986 | 35041 ft | 426 kts | 285° |
| 2026-04-25 13:06 | 23.86270 | 41.57807 | 35042 ft | 426 kts | 285° |
| 2026-04-25 13:07 | 23.88036 | 41.51632 | 35044 ft | 425 kts | 285° |
| 2026-04-25 13:07 | 23.89795 | 41.45462 | 35035 ft | 425 kts | 285° |
| 2026-04-25 13:08 | 23.91549 | 41.39300 | 35032 ft | 424 kts | 285° |
| 2026-04-25 13:08 | 23.93299 | 41.33146 | 35025 ft | 423 kts | 284° |
| 2026-04-25 13:09 | 23.95041 | 41.27003 | 35030 ft | 423 kts | 284° |
| 2026-04-25 13:09 | 23.96782 | 41.20856 | 35017 ft | 423 kts | 284° |
| 2026-04-25 13:10 | 23.98517 | 41.14715 | 35015 ft | 423 kts | 284° |
| 2026-04-25 13:10 | 24.00251 | 41.08570 | 35005 ft | 423 kts | 284° |
| 2026-04-25 13:11 | 24.01982 | 41.02423 | 35002 ft | 423 kts | 284° |
| 2026-04-25 13:11 | 24.03711 | 40.96277 | 34994 ft | 423 kts | 284° |
| 2026-04-25 13:12 | 24.05436 | 40.90129 | 35002 ft | 423 kts | 284° |
| 2026-04-25 13:12 | 24.06867 | 40.85018 | 34994 ft | 423 kts | 284° |
| 2026-04-25 13:13 | 24.08876 | 40.77830 | 34985 ft | 422 kts | 284° |
| 2026-04-25 13:13 | 24.10590 | 40.71686 | 34978 ft | 422 kts | 284° |
| 2026-04-25 13:14 | 24.12301 | 40.65543 | 34979 ft | 422 kts | 284° |
| 2026-04-25 13:14 | 24.14010 | 40.59395 | 34966 ft | 422 kts | 284° |
| 2026-04-25 13:15 | 24.15748 | 40.53262 | 34958 ft | 423 kts | 286° |
| 2026-04-25 13:15 | 24.18138 | 40.47355 | 34954 ft | 427 kts | 293° |
| 2026-04-25 13:16 | 24.20922 | 40.41611 | 34952 ft | 427 kts | 293° |
| 2026-04-25 13:16 | 24.23692 | 40.35847 | 34924 ft | 427 kts | 293° |
| 2026-04-25 13:17 | 24.26450 | 40.30078 | 34942 ft | 428 kts | 293° |
| 2026-04-25 13:17 | 24.29210 | 40.24291 | 34945 ft | 428 kts | 293° |
| 2026-04-25 13:18 | 24.31948 | 40.18542 | 34935 ft | 428 kts | 293° |
| 2026-04-25 13:18 | 24.34699 | 40.12760 | 34927 ft | 428 kts | 293° |
| 2026-04-25 13:19 | 24.37449 | 40.06972 | 34931 ft | 428 kts | 293° |
| 2026-04-25 13:19 | 24.39286 | 40.03103 | 34929 ft | 428 kts | 293° |
| 2026-04-25 13:20 | 24.42940 | 39.95397 | 34921 ft | 427 kts | 292° |
| 2026-04-25 13:20 | 24.45676 | 39.89618 | 34899 ft | 426 kts | 292° |
| 2026-04-25 13:21 | 24.48405 | 39.83844 | 34894 ft | 426 kts | 292° |
| 2026-04-25 13:21 | 24.51130 | 39.78076 | 34900 ft | 425 kts | 292° |
| 2026-04-25 13:22 | 24.54239 | 39.72527 | 34887 ft | 433 kts | 302° |
| 2026-04-25 13:23 | 24.60752 | 39.65529 | 34891 ft | 445 kts | 315° |
| 2026-04-25 13:23 | 24.64946 | 39.62217 | 34921 ft | 446 kts | 316° |
| 2026-04-25 13:24 | 24.69995 | 39.58270 | 34919 ft | 445 kts | 316° |
| 2026-04-25 13:24 | 24.75015 | 39.54302 | 34923 ft | 445 kts | 315° |
| 2026-04-25 13:25 | 24.80826 | 39.49655 | 34920 ft | 444 kts | 315° |
| 2026-04-25 13:25 | 24.85005 | 39.46305 | 34918 ft | 445 kts | 315° |
| 2026-04-25 13:26 | 24.90007 | 39.42297 | 34908 ft | 444 kts | 315° |
| 2026-04-25 13:26 | 24.94996 | 39.38297 | 34897 ft | 443 kts | 315° |
| 2026-04-25 13:27 | 24.99973 | 39.34302 | 34928 ft | 442 kts | 315° |
| 2026-04-25 13:27 | 25.04932 | 39.30317 | 34905 ft | 441 kts | 315° |
| 2026-04-25 13:28 | 25.09857 | 39.26351 | 34903 ft | 440 kts | 315° |
| 2026-04-25 13:28 | 25.14797 | 39.22373 | 34907 ft | 439 kts | 315° |
| 2026-04-25 13:29 | 25.19616 | 39.18281 | 34916 ft | 431 kts | 308° |
| 2026-04-25 13:29 | 25.23669 | 39.13520 | 34906 ft | 422 kts | 302° |
| 2026-04-25 13:30 | 25.28609 | 39.05585 | 34893 ft | 419 kts | 296° |
| 2026-04-25 13:31 | 25.33344 | 38.97398 | 34894 ft | 423 kts | 296° |
| 2026-04-25 13:31 | 25.36538 | 38.91917 | 34859 ft | 424 kts | 296° |
| 2026-04-25 13:32 | 25.39735 | 38.86440 | 34869 ft | 423 kts | 296° |
| 2026-04-25 13:32 | 25.42923 | 38.80980 | 34858 ft | 421 kts | 296° |
| 2026-04-25 13:33 | 25.46087 | 38.75544 | 34855 ft | 419 kts | 296° |
| 2026-04-25 13:33 | 25.49237 | 38.70131 | 34845 ft | 417 kts | 296° |
| 2026-04-25 13:34 | 25.52371 | 38.64737 | 34861 ft | 416 kts | 296° |
| 2026-04-25 13:34 | 25.55498 | 38.59347 | 34844 ft | 416 kts | 296° |
| 2026-04-25 13:35 | 25.58621 | 38.53959 | 34839 ft | 416 kts | 296° |
| 2026-04-25 13:35 | 25.61741 | 38.48570 | 34842 ft | 416 kts | 296° |
| 2026-04-25 13:36 | 25.64860 | 38.43178 | 34839 ft | 416 kts | 296° |
| 2026-04-25 13:36 | 25.67984 | 38.37769 | 34883 ft | 416 kts | 295° |
| 2026-04-25 13:37 | 25.71086 | 38.32394 | 34858 ft | 416 kts | 295° |
| 2026-04-25 13:37 | 25.74223 | 38.26952 | 34843 ft | 416 kts | 295° |
| 2026-04-25 13:38 | 25.77332 | 38.21551 | 34833 ft | 415 kts | 295° |
| 2026-04-25 13:38 | 25.80436 | 38.16150 | 34851 ft | 415 kts | 295° |
| 2026-04-25 13:39 | 25.83515 | 38.10796 | 34858 ft | 413 kts | 295° |
| 2026-04-25 13:39 | 25.86605 | 38.05408 | 34858 ft | 414 kts | 295° |
| 2026-04-25 13:40 | 25.89696 | 38.00008 | 34873 ft | 415 kts | 295° |
| 2026-04-25 13:40 | 25.92791 | 37.94602 | 34905 ft | 415 kts | 295° |
| 2026-04-25 13:41 | 25.95882 | 37.89196 | 34885 ft | 414 kts | 295° |
| 2026-04-25 13:41 | 25.98729 | 37.83698 | 34888 ft | 405 kts | 287° |
| 2026-04-25 13:42 | 26.00661 | 37.77864 | 34897 ft | 401 kts | 282° |
| 2026-04-25 13:42 | 26.01824 | 37.71854 | 34916 ft | 397 kts | 275° |
| 2026-04-25 13:43 | 26.02618 | 37.65764 | 34913 ft | 400 kts | 275° |
| 2026-04-25 13:43 | 26.03433 | 37.59634 | 34905 ft | 401 kts | 275° |
| 2026-04-25 13:44 | 26.04266 | 37.53499 | 34893 ft | 401 kts | 276° |
| 2026-04-25 13:44 | 26.05091 | 37.47391 | 34899 ft | 399 kts | 276° |
| 2026-04-25 13:45 | 26.05905 | 37.41293 | 34890 ft | 399 kts | 275° |
| 2026-04-25 13:45 | 26.06718 | 37.35197 | 34884 ft | 399 kts | 275° |
| 2026-04-25 13:46 | 26.07520 | 37.29095 | 34875 ft | 399 kts | 275° |
| 2026-04-25 13:46 | 26.08320 | 37.22985 | 34896 ft | 399 kts | 275° |
| 2026-04-25 13:47 | 26.09121 | 37.16921 | 34881 ft | 399 kts | 275° |
| 2026-04-25 13:47 | 26.09924 | 37.10820 | 34863 ft | 398 kts | 275° |
| 2026-04-25 13:48 | 26.10718 | 37.04735 | 34864 ft | 397 kts | 275° |
| 2026-04-25 13:48 | 26.11511 | 36.98652 | 34881 ft | 397 kts | 275° |
| 2026-04-25 13:49 | 26.12300 | 36.92572 | 34865 ft | 397 kts | 275° |
| 2026-04-25 13:49 | 26.13086 | 36.86490 | 34850 ft | 397 kts | 275° |
| 2026-04-25 13:50 | 26.13869 | 36.80415 | 34855 ft | 397 kts | 275° |
| 2026-04-25 13:50 | 26.14650 | 36.74332 | 34880 ft | 397 kts | 275° |
| 2026-04-25 13:51 | 26.15429 | 36.68241 | 34861 ft | 398 kts | 275° |
| 2026-04-25 13:51 | 26.16207 | 36.62150 | 34854 ft | 397 kts | 275° |
| 2026-04-25 13:52 | 26.16981 | 36.56061 | 34855 ft | 397 kts | 275° |
| 2026-04-25 13:52 | 26.18641 | 36.50166 | 34865 ft | 406 kts | 289° |
| 2026-04-25 13:53 | 26.21463 | 36.44687 | 34855 ft | 412 kts | 298° |
| 2026-04-25 13:53 | 26.25424 | 36.39968 | 34857 ft | 419 kts | 304° |
| 2026-04-25 13:54 | 26.29528 | 36.35353 | 34896 ft | 419 kts | 304° |
| 2026-04-25 13:54 | 26.33605 | 36.30712 | 34863 ft | 419 kts | 304° |
| 2026-04-25 13:55 | 26.37655 | 36.26054 | 34856 ft | 418 kts | 304° |
| 2026-04-25 13:55 | 26.41695 | 36.21388 | 34862 ft | 418 kts | 304° |
| 2026-04-25 13:56 | 26.45706 | 36.16748 | 34857 ft | 418 kts | 304° |
| 2026-04-25 13:56 | 26.49740 | 36.12078 | 34858 ft | 418 kts | 304° |
| 2026-04-25 13:57 | 26.53772 | 36.07405 | 34859 ft | 418 kts | 304° |
| 2026-04-25 13:57 | 26.57802 | 36.02729 | 34858 ft | 418 kts | 304° |
| 2026-04-25 13:58 | 26.61832 | 35.98049 | 34860 ft | 418 kts | 304° |
| 2026-04-25 13:58 | 26.65863 | 35.93362 | 34897 ft | 418 kts | 304° |
| 2026-04-25 13:59 | 26.69896 | 35.88668 | 34868 ft | 418 kts | 304° |
| 2026-04-25 13:59 | 26.73924 | 35.83975 | 34862 ft | 418 kts | 303° |
| 2026-04-25 14:00 | 26.77946 | 35.79284 | 34863 ft | 417 kts | 303° |
| 2026-04-25 14:00 | 26.81961 | 35.74597 | 34878 ft | 417 kts | 303° |
| 2026-04-25 14:01 | 26.85972 | 35.69911 | 34866 ft | 417 kts | 303° |
| 2026-04-25 14:01 | 26.89981 | 35.65219 | 34862 ft | 417 kts | 303° |
| 2026-04-25 14:02 | 26.93985 | 35.60528 | 34863 ft | 416 kts | 303° |
| 2026-04-25 14:02 | 26.97987 | 35.55834 | 34863 ft | 416 kts | 303° |
| 2026-04-25 14:03 | 27.01988 | 35.51136 | 34862 ft | 416 kts | 303° |
| 2026-04-25 14:03 | 27.05990 | 35.46431 | 34880 ft | 418 kts | 303° |
| 2026-04-25 14:04 | 27.09999 | 35.41714 | 34868 ft | 418 kts | 303° |
| 2026-04-25 14:04 | 27.14005 | 35.36996 | 34865 ft | 417 kts | 303° |
| 2026-04-25 14:05 | 27.17978 | 35.32310 | 34860 ft | 417 kts | 303° |
| 2026-04-25 14:05 | 27.21971 | 35.27597 | 34867 ft | 416 kts | 303° |
| 2026-04-25 14:06 | 27.25960 | 35.22881 | 34872 ft | 416 kts | 303° |
| 2026-04-25 14:06 | 27.29945 | 35.18165 | 34863 ft | 416 kts | 303° |
| 2026-04-25 14:07 | 27.33929 | 35.13446 | 34865 ft | 416 kts | 303° |
| 2026-04-25 14:07 | 27.37911 | 35.08723 | 34852 ft | 416 kts | 303° |
| 2026-04-25 14:08 | 27.41889 | 35.03999 | 34865 ft | 417 kts | 303° |
| 2026-04-25 14:08 | 27.45877 | 34.99256 | 34859 ft | 417 kts | 303° |
| 2026-04-25 14:09 | 27.49872 | 34.94503 | 34857 ft | 418 kts | 303° |
| 2026-04-25 14:09 | 27.54032 | 34.89858 | 34850 ft | 423 kts | 306° |
| 2026-04-25 14:10 | 27.58340 | 34.85331 | 34847 ft | 424 kts | 307° |
| 2026-04-25 14:10 | 27.62651 | 34.80802 | 34850 ft | 423 kts | 307° |
| 2026-04-25 14:11 | 27.66947 | 34.76262 | 34851 ft | 423 kts | 306° |
| 2026-04-25 14:11 | 27.71232 | 34.71720 | 34859 ft | 423 kts | 306° |
| 2026-04-25 14:12 | 27.75521 | 34.67165 | 34852 ft | 423 kts | 306° |
| 2026-04-25 14:12 | 27.79813 | 34.62603 | 34858 ft | 424 kts | 307° |
| 2026-04-25 14:13 | 27.83385 | 34.58804 | 34843 ft | 425 kts | 307° |
| 2026-04-25 14:13 | 27.87685 | 34.54224 | 34848 ft | 425 kts | 307° |
| 2026-04-25 14:14 | 27.91984 | 34.49641 | 34863 ft | 425 kts | 307° |
| 2026-04-25 14:14 | 27.96286 | 34.45051 | 34868 ft | 425 kts | 307° |
| 2026-04-25 14:15 | 28.00492 | 34.40381 | 34859 ft | 419 kts | 302° |
| 2026-04-25 14:15 | 28.04165 | 34.35315 | 34855 ft | 416 kts | 300° |
| 2026-04-25 14:16 | 28.07817 | 34.30236 | 34882 ft | 416 kts | 301° |
| 2026-04-25 14:16 | 28.11483 | 34.25153 | 34883 ft | 417 kts | 300° |
| 2026-04-25 14:17 | 28.15155 | 34.20056 | 34909 ft | 419 kts | 301° |
| 2026-04-25 14:17 | 28.18853 | 34.14928 | 34879 ft | 421 kts | 301° |
| 2026-04-25 14:18 | 28.22556 | 34.09774 | 34890 ft | 423 kts | 301° |
| 2026-04-25 14:18 | 28.26281 | 34.04599 | 34901 ft | 423 kts | 301° |
| 2026-04-25 14:19 | 28.30014 | 33.99413 | 34923 ft | 425 kts | 301° |
| 2026-04-25 14:19 | 28.33739 | 33.94219 | 34932 ft | 424 kts | 301° |
| 2026-04-25 14:20 | 28.37454 | 33.89025 | 34894 ft | 423 kts | 301° |
| 2026-04-25 14:20 | 28.41150 | 33.83861 | 34901 ft | 420 kts | 301° |
| 2026-04-25 14:21 | 28.44824 | 33.78715 | 34890 ft | 419 kts | 301° |
| 2026-04-25 14:21 | 28.48488 | 33.73570 | 34872 ft | 425 kts | 301° |
| 2026-04-25 14:22 | 28.52222 | 33.68339 | 34876 ft | 427 kts | 301° |
| 2026-04-25 14:22 | 28.55965 | 33.63078 | 34885 ft | 428 kts | 301° |
| 2026-04-25 14:23 | 28.59710 | 33.57801 | 34908 ft | 429 kts | 301° |
| 2026-04-25 14:23 | 28.63442 | 33.52541 | 34883 ft | 424 kts | 301° |
| 2026-04-25 14:24 | 28.67144 | 33.47326 | 34876 ft | 423 kts | 301° |
| 2026-04-25 14:24 | 28.70846 | 33.42102 | 34879 ft | 424 kts | 301° |
| 2026-04-25 14:25 | 28.74548 | 33.36879 | 34869 ft | 423 kts | 301° |
| 2026-04-25 14:25 | 28.78243 | 33.31653 | 34874 ft | 423 kts | 301° |
| 2026-04-25 14:26 | 28.81941 | 33.26417 | 34878 ft | 424 kts | 301° |
| 2026-04-25 14:26 | 28.85642 | 33.21167 | 34861 ft | 425 kts | 301° |
| 2026-04-25 14:27 | 28.89346 | 33.15909 | 34866 ft | 425 kts | 301° |
| 2026-04-25 14:27 | 28.93049 | 33.10646 | 34865 ft | 425 kts | 301° |
| 2026-04-25 14:28 | 28.96754 | 33.05374 | 34862 ft | 426 kts | 301° |
| 2026-04-25 14:28 | 29.00456 | 33.00098 | 34859 ft | 426 kts | 301° |
| 2026-04-25 14:29 | 29.04138 | 32.94846 | 34862 ft | 426 kts | 301° |
| 2026-04-25 14:29 | 29.07842 | 32.89554 | 34859 ft | 426 kts | 301° |
| 2026-04-25 14:30 | 29.11544 | 32.84258 | 34865 ft | 427 kts | 301° |
| 2026-04-25 14:30 | 29.17100 | 32.76297 | 34863 ft | 427 kts | 301° |
| 2026-04-25 14:31 | 29.20800 | 32.70987 | 34867 ft | 427 kts | 301° |
| 2026-04-25 14:31 | 29.24500 | 32.65670 | 34869 ft | 427 kts | 301° |
| 2026-04-25 14:32 | 29.28196 | 32.60352 | 34887 ft | 427 kts | 301° |
| 2026-04-25 14:32 | 29.31876 | 32.55014 | 34875 ft | 427 kts | 301° |
| 2026-04-25 14:33 | 29.35545 | 32.49657 | 34893 ft | 428 kts | 301° |
| 2026-04-25 14:33 | 29.39231 | 32.44268 | 34886 ft | 430 kts | 301° |
| 2026-04-25 14:34 | 29.42932 | 32.38862 | 34891 ft | 431 kts | 301° |
| 2026-04-25 14:34 | 29.46636 | 32.33441 | 34919 ft | 432 kts | 301° |
| 2026-04-25 14:35 | 29.50336 | 32.28020 | 34900 ft | 431 kts | 301° |
| 2026-04-25 14:35 | 29.54021 | 32.22614 | 34911 ft | 430 kts | 301° |
| 2026-04-25 14:36 | 29.57703 | 32.17208 | 34894 ft | 428 kts | 301° |
| 2026-04-25 14:36 | 29.61339 | 32.11854 | 34893 ft | 427 kts | 301° |
| 2026-04-25 14:37 | 29.64983 | 32.06484 | 34921 ft | 426 kts | 301° |
| 2026-04-25 14:37 | 29.68630 | 32.01104 | 34894 ft | 426 kts | 301° |
| 2026-04-25 14:38 | 29.72273 | 31.95722 | 34890 ft | 427 kts | 301° |
| 2026-04-25 14:38 | 29.75918 | 31.90330 | 34906 ft | 428 kts | 301° |
| 2026-04-25 14:39 | 29.79558 | 31.84903 | 34888 ft | 428 kts | 300° |
| 2026-04-25 14:39 | 29.83101 | 31.79381 | 34899 ft | 429 kts | 300° |
| 2026-04-25 14:40 | 29.86652 | 31.73841 | 34885 ft | 430 kts | 300° |
| 2026-04-25 14:40 | 29.90616 | 31.68647 | 34878 ft | 444 kts | 316° |
| 2026-04-25 14:41 | 29.93274 | 31.66751 | 34883 ft | 456 kts | 324° |
| 2026-04-25 14:41 | 29.96241 | 31.65338 | 34870 ft | 470 kts | 336° |
| 2026-04-25 14:41 | 30.02784 | 31.64058 | 34881 ft | 480 kts | 343° |
| 2026-04-25 14:42 | 30.07171 | 31.63372 | 34912 ft | 481 kts | 343° |
| 2026-04-25 14:42 | 30.16041 | 31.61895 | 34846 ft | 481 kts | 342° |
| 2026-04-25 14:43 | 30.22614 | 31.60724 | 34836 ft | 481 kts | 342° |
| 2026-04-25 14:43 | 30.29264 | 31.59522 | 34851 ft | 480 kts | 342° |
| 2026-04-25 14:44 | 30.35856 | 31.58329 | 34859 ft | 480 kts | 342° |
| 2026-04-25 14:44 | 30.42401 | 31.57147 | 34849 ft | 479 kts | 342° |
| 2026-04-25 14:45 | 30.48989 | 31.55956 | 34842 ft | 479 kts | 342° |
| 2026-04-25 14:45 | 30.55568 | 31.54765 | 34844 ft | 478 kts | 342° |
| 2026-04-25 14:46 | 30.62147 | 31.53571 | 34852 ft | 479 kts | 343° |
| 2026-04-25 14:46 | 30.68737 | 31.52375 | 34844 ft | 480 kts | 343° |
| 2026-04-25 14:47 | 30.73152 | 31.51573 | 34846 ft | 480 kts | 343° |
| 2026-04-25 14:47 | 30.81940 | 31.49976 | 34849 ft | 481 kts | 343° |
| 2026-04-25 14:48 | 30.88552 | 31.48774 | 34851 ft | 481 kts | 343° |
| 2026-04-25 14:48 | 30.95170 | 31.47570 | 34844 ft | 481 kts | 343° |
| 2026-04-25 14:49 | 31.01793 | 31.46363 | 34844 ft | 481 kts | 343° |
| 2026-04-25 14:49 | 31.08403 | 31.45156 | 34863 ft | 481 kts | 343° |
| 2026-04-25 14:50 | 31.15023 | 31.43946 | 34852 ft | 481 kts | 343° |
| 2026-04-25 14:50 | 31.21642 | 31.42734 | 34852 ft | 482 kts | 343° |
| 2026-04-25 14:51 | 31.28261 | 31.41516 | 34853 ft | 481 kts | 343° |
| 2026-04-25 14:51 | 31.34872 | 31.40277 | 34882 ft | 482 kts | 343° |
| 2026-04-25 14:52 | 31.41503 | 31.39029 | 34860 ft | 483 kts | 343° |
| 2026-04-25 14:52 | 31.47029 | 31.37992 | 34852 ft | 484 kts | 343° |
| 2026-04-25 14:53 | 31.54766 | 31.36541 | 34860 ft | 485 kts | 343° |
| 2026-04-25 14:53 | 31.61520 | 31.35699 | 34865 ft | 490 kts | 348° |
| 2026-04-25 14:54 | 31.68329 | 31.35059 | 34865 ft | 491 kts | 348° |
| 2026-04-25 14:54 | 31.75136 | 31.34386 | 34862 ft | 491 kts | 348° |
| 2026-04-25 14:55 | 31.81935 | 31.33683 | 34863 ft | 490 kts | 348° |
| 2026-04-25 14:55 | 31.88732 | 31.32979 | 34863 ft | 490 kts | 348° |
| 2026-04-25 14:56 | 31.95524 | 31.32268 | 34863 ft | 490 kts | 348° |
| 2026-04-25 14:56 | 32.02314 | 31.31555 | 34862 ft | 490 kts | 348° |
| 2026-04-25 14:57 | 32.09098 | 31.30845 | 34880 ft | 490 kts | 348° |
| 2026-04-25 14:57 | 32.15886 | 31.30137 | 34871 ft | 490 kts | 348° |
| 2026-04-25 14:58 | 32.22672 | 31.29417 | 34864 ft | 489 kts | 348° |
| 2026-04-25 14:58 | 32.29451 | 31.28680 | 34867 ft | 489 kts | 348° |
| 2026-04-25 14:59 | 32.36226 | 31.27943 | 34875 ft | 489 kts | 348° |
| 2026-04-25 14:59 | 32.43004 | 31.27208 | 34870 ft | 489 kts | 348° |
| 2026-04-25 15:00 | 32.49772 | 31.26474 | 34876 ft | 489 kts | 348° |
| 2026-04-25 15:00 | 32.56493 | 31.25573 | 34886 ft | 486 kts | 352° |
| 2026-04-25 15:01 | 32.59904 | 31.25811 | 34877 ft | 497 kts | 6° |
| 2026-04-25 15:01 | 32.63262 | 31.26906 | 34888 ft | 505 kts | 16° |
| 2026-04-25 15:01 | 32.69595 | 31.30651 | 34899 ft | 511 kts | 25° |
| 2026-04-25 15:02 | 32.75801 | 31.34715 | 34905 ft | 514 kts | 25° |
| 2026-04-25 15:02 | 32.82091 | 31.38771 | 34890 ft | 514 kts | 25° |
| 2026-04-25 15:03 | 32.88388 | 31.42807 | 34891 ft | 514 kts | 25° |
| 2026-04-25 15:03 | 32.94677 | 31.46840 | 34891 ft | 513 kts | 25° |
| 2026-04-25 15:04 | 32.99928 | 31.50215 | 34897 ft | 511 kts | 25° |
| 2026-04-25 15:04 | 33.06177 | 31.54240 | 34894 ft | 510 kts | 25° |
| 2026-04-25 15:05 | 33.12404 | 31.58257 | 34894 ft | 508 kts | 25° |
| 2026-04-25 15:06 | 33.21721 | 31.64279 | 34909 ft | 507 kts | 26° |
| 2026-04-25 15:06 | 33.27880 | 31.68268 | 34900 ft | 507 kts | 26° |
| 2026-04-25 15:07 | 33.34098 | 31.72301 | 34414 ft | 514 kts | 26° |
| 2026-04-25 15:07 | 33.37237 | 31.74338 | 33899 ft | 511 kts | 26° |
| 2026-04-25 15:07 | 33.40348 | 31.76362 | 33297 ft | 506 kts | 26° |
| 2026-04-25 15:07 | 33.43421 | 31.78363 | 32766 ft | 501 kts | 26° |
| 2026-04-25 15:08 | 33.46465 | 31.80347 | 32242 ft | 495 kts | 27° |
| 2026-04-25 15:08 | 33.49473 | 31.82308 | 31764 ft | 490 kts | 27° |
| 2026-04-25 15:08 | 33.52452 | 31.84251 | 31271 ft | 485 kts | 27° |
| 2026-04-25 15:08 | 33.55403 | 31.86177 | 30812 ft | 481 kts | 27° |
| 2026-04-25 15:09 | 33.58328 | 31.88087 | 30325 ft | 477 kts | 27° |
| 2026-04-25 15:09 | 33.61234 | 31.89987 | 29817 ft | 473 kts | 27° |
| 2026-04-25 15:09 | 33.66971 | 31.93741 | 28746 ft | 465 kts | 27° |
| 2026-04-25 15:10 | 33.69800 | 31.95595 | 28260 ft | 461 kts | 27° |
| 2026-04-25 15:10 | 33.72600 | 31.97432 | 27784 ft | 457 kts | 27° |
| 2026-04-25 15:10 | 33.78141 | 32.01069 | 26796 ft | 450 kts | 27° |
| 2026-04-25 15:11 | 33.80881 | 32.02870 | 26323 ft | 447 kts | 27° |
| 2026-04-25 15:11 | 33.83589 | 32.04692 | 25839 ft | 445 kts | 31° |
| 2026-04-25 15:11 | 33.86101 | 32.06851 | 25377 ft | 443 kts | 39° |
| 2026-04-25 15:12 | 33.90350 | 32.12055 | 24439 ft | 437 kts | 52° |
| 2026-04-25 15:12 | 33.92224 | 32.14920 | 23984 ft | 435 kts | 53° |
| 2026-04-25 15:12 | 33.94078 | 32.17788 | 23516 ft | 433 kts | 53° |
| 2026-04-25 15:12 | 33.95325 | 32.19719 | 23130 ft | 432 kts | 53° |
| 2026-04-25 15:13 | 33.97770 | 32.23489 | 22478 ft | 429 kts | 53° |
| 2026-04-25 15:13 | 34.01436 | 32.29106 | 21531 ft | 424 kts | 52° |
| 2026-04-25 15:13 | 34.03257 | 32.31889 | 21079 ft | 421 kts | 52° |
| 2026-04-25 15:14 | 34.05063 | 32.34646 | 20735 ft | 416 kts | 52° |
| 2026-04-25 15:14 | 34.06849 | 32.37376 | 20307 ft | 413 kts | 52° |
| 2026-04-25 15:14 | 34.08625 | 32.40091 | 19859 ft | 411 kts | 52° |
| 2026-04-25 15:14 | 34.10391 | 32.42795 | 19421 ft | 410 kts | 52° |
| 2026-04-25 15:15 | 34.12154 | 32.45495 | 18964 ft | 409 kts | 52° |
| 2026-04-25 15:15 | 34.13911 | 32.48189 | 18511 ft | 408 kts | 52° |
| 2026-04-25 15:15 | 34.15661 | 32.50874 | 18032 ft | 407 kts | 52° |
| 2026-04-25 15:15 | 34.17411 | 32.53562 | 17525 ft | 406 kts | 52° |
| 2026-04-25 15:16 | 34.19153 | 32.56239 | 17030 ft | 404 kts | 52° |
| 2026-04-25 15:16 | 34.20887 | 32.58905 | 16583 ft | 402 kts | 52° |
| 2026-04-25 15:16 | 34.24316 | 32.64184 | 15733 ft | 397 kts | 52° |
| 2026-04-25 15:17 | 34.27708 | 32.69413 | 14841 ft | 394 kts | 52° |
| 2026-04-25 15:17 | 34.29392 | 32.72012 | 14399 ft | 392 kts | 52° |
| 2026-04-25 15:17 | 34.31070 | 32.74608 | 13931 ft | 391 kts | 52° |
| 2026-04-25 15:18 | 34.32738 | 32.77199 | 13467 ft | 390 kts | 52° |
| 2026-04-25 15:18 | 34.36055 | 32.82366 | 12508 ft | 386 kts | 52° |
| 2026-04-25 15:18 | 34.37694 | 32.84922 | 12041 ft | 384 kts | 52° |
| 2026-04-25 15:19 | 34.39325 | 32.87466 | 11588 ft | 378 kts | 52° |
| 2026-04-25 15:19 | 34.40387 | 32.89124 | 11300 ft | 374 kts | 52° |
| 2026-04-25 15:19 | 34.42461 | 32.92360 | 10645 ft | 360 kts | 52° |
| 2026-04-25 15:19 | 34.43957 | 32.94699 | 10297 ft | 342 kts | 51° |
| 2026-04-25 15:20 | 34.45388 | 32.96936 | 10188 ft | 329 kts | 51° |
| 2026-04-25 15:20 | 34.46773 | 32.99091 | 10122 ft | 320 kts | 51° |
| 2026-04-25 15:20 | 34.48122 | 33.01184 | 10048 ft | 311 kts | 51° |
| 2026-04-25 15:20 | 34.49437 | 33.03225 | 9975 ft | 304 kts | 51° |
| 2026-04-25 15:21 | 34.50732 | 33.05236 | 9905 ft | 303 kts | 51° |
| 2026-04-25 15:21 | 34.52031 | 33.07255 | 9905 ft | 304 kts | 51° |
| 2026-04-25 15:21 | 34.53336 | 33.09284 | 9908 ft | 306 kts | 51° |
| 2026-04-25 15:21 | 34.54645 | 33.11321 | 9911 ft | 307 kts | 51° |
| 2026-04-25 15:22 | 34.55953 | 33.13359 | 9874 ft | 304 kts | 51° |
| 2026-04-25 15:22 | 34.57234 | 33.15358 | 9529 ft | 296 kts | 51° |
| 2026-04-25 15:22 | 34.58493 | 33.17320 | 8915 ft | 293 kts | 52° |
| 2026-04-25 15:22 | 34.59729 | 33.19250 | 8297 ft | 291 kts | 52° |
| 2026-04-25 15:23 | 34.60975 | 33.21195 | 7678 ft | 290 kts | 52° |
| 2026-04-25 15:23 | 34.62200 | 33.23108 | 7210 ft | 285 kts | 52° |
| 2026-04-25 15:23 | 34.63407 | 33.24995 | 6758 ft | 281 kts | 52° |
| 2026-04-25 15:23 | 34.64603 | 33.26873 | 6330 ft | 282 kts | 54° |
| 2026-04-25 15:24 | 34.65524 | 33.28975 | 5891 ft | 286 kts | 69° |
| 2026-04-25 15:24 | 34.66172 | 33.31270 | 5474 ft | 289 kts | 71° |
| 2026-04-25 15:24 | 34.66809 | 33.33594 | 5052 ft | 289 kts | 70° |
| 2026-04-25 15:24 | 34.67237 | 33.35102 | 4789 ft | 281 kts | 70° |
| 2026-04-25 15:25 | 34.68178 | 33.37959 | 4249 ft | 264 kts | 56° |
| 2026-04-25 15:25 | 34.69277 | 33.39664 | 3889 ft | 249 kts | 47° |
| 2026-04-25 15:25 | 34.70400 | 33.41196 | 3563 ft | 236 kts | 47° |
| 2026-04-25 15:25 | 34.71467 | 33.42680 | 3279 ft | 231 kts | 49° |
| 2026-04-25 15:26 | 34.72497 | 33.44139 | 3107 ft | 221 kts | 49° |
| 2026-04-25 15:26 | 34.73464 | 33.45483 | 2887 ft | 204 kts | 45° |
| 2026-04-25 15:26 | 34.74452 | 33.46686 | 2632 ft | 198 kts | 44° |
| 2026-04-25 15:26 | 34.75420 | 33.47842 | 2364 ft | 192 kts | 44° |
| 2026-04-25 15:27 | 34.76340 | 33.48953 | 2144 ft | 183 kts | 44° |
| 2026-04-25 15:27 | 34.77202 | 33.49998 | 2049 ft | 166 kts | 43° |
| 2026-04-25 15:27 | 34.78785 | 33.51919 | 2019 ft | 162 kts | 44° |
| 2026-04-25 15:28 | 34.79587 | 33.52895 | 1976 ft | 158 kts | 43° |
| 2026-04-25 15:28 | 34.80379 | 33.53857 | 1798 ft | 162 kts | 43° |
| 2026-04-25 15:28 | 34.81144 | 33.54786 | 1579 ft | 153 kts | 45° |
| 2026-04-25 15:28 | 34.81872 | 33.55670 | 1355 ft | 144 kts | 47° |
| 2026-04-25 15:29 | 34.82578 | 33.56533 | 1141 ft | 143 kts | 47° |
| 2026-04-25 15:29 | 34.83286 | 33.57398 | 935 ft | 144 kts | 47° |
| 2026-04-25 15:29 | 34.83985 | 33.58255 | 771 ft | 141 kts | 47° |
| 2026-04-25 15:29 | 34.84678 | 33.59098 | 581 ft | 140 kts | 47° |
| 2026-04-25 15:30 | 34.85379 | 33.59952 | 391 ft | 145 kts | 47° |
| 2026-04-25 15:30 | 34.86084 | 33.60816 | 159 ft | 143 kts | 46° |
| 2026-04-25 15:30 | 34.86780 | 33.61667 | 28 ft | 136 kts | 46° |
| 2026-04-25 15:30 | 34.87360 | 33.62374 | 25 ft | 97 kts | 45° |
| 2026-04-25 15:31 | 34.87703 | 33.62792 | 28 ft | 39 kts | 45° |
| 2026-04-25 15:31 | 34.87804 | 33.62912 | 30 ft | 11 kts | 34° |
| 2026-04-25 15:31 | 34.87871 | 33.62894 | 28 ft | 11 kts | 316° |
| 2026-04-25 15:31 | 34.87926 | 33.62829 | 27 ft | 11 kts | 317° |
| 2026-04-25 15:32 | 34.87958 | 33.62742 | 28 ft | 12 kts | 264° |
| 2026-04-25 15:32 | 34.87897 | 33.62666 | 31 ft | 15 kts | 221° |
| 2026-04-25 15:32 | 34.87803 | 33.62557 | 26 ft | 20 kts | 225° |
| 2026-04-25 15:33 | 34.87602 | 33.62311 | 25 ft | 21 kts | 225° |
| 2026-04-25 15:33 | 34.87500 | 33.62186 | 27 ft | 21 kts | 225° |
| 2026-04-25 15:33 | 34.87398 | 33.62062 | 26 ft | 21 kts | 225° |
| 2026-04-25 15:33 | 34.87297 | 33.61939 | 26 ft | 20 kts | 225° |
| 2026-04-25 15:34 | 34.87197 | 33.61815 | 30 ft | 20 kts | 225° |
| 2026-04-25 15:34 | 34.87097 | 33.61692 | 32 ft | 20 kts | 225° |
| 2026-04-25 15:34 | 34.86995 | 33.61568 | 27 ft | 21 kts | 225° |
| 2026-04-25 15:34 | 34.86960 | 33.61524 | 28 ft | 22 kts | 225° |
| 2026-04-25 15:35 | 34.86686 | 33.61190 | 30 ft | 12 kts | 224° |
| 2026-04-25 15:35 | 34.86636 | 33.61116 | 30 ft | 11 kts | 254° |
| 2026-04-25 15:35 | 34.86676 | 33.61038 | 29 ft | 11 kts | 315° |
| 2026-04-25 15:36 | 34.86753 | 33.60991 | 29 ft | 6 kts | 38° |
| 2026-04-25 15:36 | 34.86780 | 33.61026 | 30 ft | 4 kts | 49° |
| 2026-04-25 15:36 | 34.86793 | 33.61044 | 30 ft | 1 kts | 49° |